Meteo Giornale » Osservazioni meteo Italia » Pratica Di Mare

ore: 15:55 - Osservazioni Meteo Pratica Di Mare
Lat. 41° 39' N Lon. 12° 27' E Alt. 6 metri s.l.m.

sereno Europe/Rome

26 °C

Sereno

Temp. 24 Ore

16 °C

28 °C

Ovest

25.9 Km/h

Dew point 8 °C

Umidità 31 %

Visibilità  10 Km

Il sole sorge alle ore 05:38

Il sole tramonta alle ore 20:36

Data e Ora Cielo e Fenomeni T °C DP °C Um. % Pres. hPa Vis. km Vento km/h
Oggi h: 15:55 sereno Sereno 26 8 31 1019 10 O 25.9
Oggi h: 14:55 sereno Sereno 26 9 34 1019 10 O/SO 20.3
Oggi h: 13:55 sereno Sereno 27 0 17 1019 10 O/SO 24
Oggi h: 12:55 sereno Sereno 28 -1 15 1019 10 O/SO 22.2
Oggi h: 11:55 sereno Sereno 28 -0 16 1020 10 O 18.5
Oggi h: 10:55 sereno Sereno 27 0 17 1020 10 N 14.8
Oggi h: 09:55 sereno Sereno 27 4 22 1020 10 N/NE 11.1
Oggi h: 08:55 sereno Sereno 24 5 29 1020 10 N 11.1
Oggi h: 07:55 sereno Sereno 21 8 43 1019 10 NE 14.8
Oggi h: 06:55 sereno Sereno 17 9 59 1019 10 N/NE 13
Oggi h: 05:55 sereno Sereno 16 10 67 1019 10 N/NE 13
Oggi h: 04:55 sereno Sereno 16 10 67 1019 10 N/NE 13
Oggi h: 03:55 sereno Sereno 16 11 72 1019 10 N 0
Oggi h: 02:55 sereno Sereno 17 11 67 1019 10 N 3.7
Oggi h: 01:55 sereno Sereno 17 10 63 1019 10 N 7.4
Oggi h: 00:55 sereno Sereno 19 12 63 1019 10 E 14.8
Ieri h: 23:55 sereno Sereno 19 15 77 1019 10 E 13
Ieri h: 21:55 sereno Sereno 20 17 82 1018 10 E/SE 9.3
Ieri h: 20:55 sereno Sereno 20 15 72 1017 10 S/SO 9.3
Ieri h: 19:55 sereno Sereno 21 16 73 1017 10 SO 9.3
Ieri h: 18:55 sereno Sereno 23 15 60 1017 10 O 14.8
Ieri h: 17:55 sereno Sereno 24 13 50 1017 10 O 14.8
Ieri h: 16:55 sereno Sereno 23 15 60 1017 10 O/SO 16.7